sensor_id;sensor_type;location;lat;lon;timestamp;temperature;humidity
37518;DHT22;23366;52.498;13.446;2022-10-17T00:00:40;14.30;99.90
37518;DHT22;23366;52.498;13.446;2022-10-17T00:03:06;14.30;99.90
37518;DHT22;23366;52.498;13.446;2022-10-17T00:05:31;14.40;99.90
37518;DHT22;23366;52.498;13.446;2022-10-17T00:07:57;14.40;99.90
37518;DHT22;23366;52.498;13.446;2022-10-17T00:10:23;14.40;99.90
37518;DHT22;23366;52.498;13.446;2022-10-17T00:12:50;14.40;99.90
37518;DHT22;23366;52.498;13.446;2022-10-17T00:15:17;14.40;99.90
37518;DHT22;23366;52.498;13.446;2022-10-17T00:17:43;14.40;99.90
37518;DHT22;23366;52.498;13.446;2022-10-17T00:20:09;14.30;99.90
37518;DHT22;23366;52.498;13.446;2022-10-17T00:22:34;14.30;99.90
37518;DHT22;23366;52.498;13.446;2022-10-17T00:25:00;14.30;99.90
37518;DHT22;23366;52.498;13.446;2022-10-17T00:27:25;14.30;99.90
37518;DHT22;23366;52.498;13.446;2022-10-17T00:29:51;14.20;99.90
37518;DHT22;23366;52.498;13.446;2022-10-17T00:32:17;14.20;99.90
37518;DHT22;23366;52.498;13.446;2022-10-17T00:34:43;14.20;99.90
37518;DHT22;23366;52.498;13.446;2022-10-17T00:37:09;14.20;99.90
37518;DHT22;23366;52.498;13.446;2022-10-17T00:39:35;14.20;99.90
37518;DHT22;23366;52.498;13.446;2022-10-17T00:42:00;14.20;99.90
37518;DHT22;23366;52.498;13.446;2022-10-17T00:47:00;14.10;99.90
37518;DHT22;23366;52.498;13.446;2022-10-17T00:49:30;14.10;99.90
37518;DHT22;23366;52.498;13.446;2022-10-17T00:51:59;14.10;99.90
37518;DHT22;23366;52.498;13.446;2022-10-17T00:54:34;14.10;99.90
37518;DHT22;23366;52.498;13.446;2022-10-17T00:57:02;14.10;99.90
37518;DHT22;23366;52.498;13.446;2022-10-17T00:59:29;14.10;99.90
37518;DHT22;23366;52.498;13.446;2022-10-17T01:04:26;14.10;99.90
37518;DHT22;23366;52.498;13.446;2022-10-17T01:06:52;14.10;99.90
37518;DHT22;23366;52.498;13.446;2022-10-17T01:09:17;14.20;99.90
37518;DHT22;23366;52.498;13.446;2022-10-17T01:12:10;14.20;99.90
37518;DHT22;23366;52.498;13.446;2022-10-17T01:20:40;14.20;99.90
37518;DHT22;23366;52.498;13.446;2022-10-17T01:23:16;14.20;99.90
37518;DHT22;23366;52.498;13.446;2022-10-17T01:25:56;14.10;99.90
37518;DHT22;23366;52.498;13.446;2022-10-17T01:31:26;14.10;99.90
37518;DHT22;23366;52.498;13.446;2022-10-17T01:34:04;14.00;99.90
37518;DHT22;23366;52.498;13.446;2022-10-17T01:36:55;14.00;99.90
37518;DHT22;23366;52.498;13.446;2022-10-17T01:42:12;13.90;99.90
37518;DHT22;23366;52.498;13.446;2022-10-17T01:44:53;14.00;99.90
37518;DHT22;23366;52.498;13.446;2022-10-17T01:47:24;13.90;99.90
37518;DHT22;23366;52.498;13.446;2022-10-17T01:49:53;13.90;99.90
37518;DHT22;23366;52.498;13.446;2022-10-17T01:52:22;13.90;99.90
37518;DHT22;23366;52.498;13.446;2022-10-17T01:54:52;13.90;99.90
37518;DHT22;23366;52.498;13.446;2022-10-17T01:57:32;13.90;99.90
37518;DHT22;23366;52.498;13.446;2022-10-17T01:59:59;13.80;99.90
37518;DHT22;23366;52.498;13.446;2022-10-17T02:02:27;13.80;99.90
37518;DHT22;23366;52.498;13.446;2022-10-17T02:04:54;13.80;99.90
37518;DHT22;23366;52.498;13.446;2022-10-17T02:07:21;13.80;99.90
37518;DHT22;23366;52.498;13.446;2022-10-17T02:09:46;13.80;99.90
37518;DHT22;23366;52.498;13.446;2022-10-17T02:12:41;13.70;99.90
37518;DHT22;23366;52.498;13.446;2022-10-17T02:18:45;13.70;99.90
37518;DHT22;23366;52.498;13.446;2022-10-17T02:21:23;13.70;99.90
37518;DHT22;23366;52.498;13.446;2022-10-17T02:24:17;13.70;99.90
37518;DHT22;23366;52.498;13.446;2022-10-17T02:26:58;13.70;99.90
37518;DHT22;23366;52.498;13.446;2022-10-17T02:29:33;13.70;99.90
37518;DHT22;23366;52.498;13.446;2022-10-17T02:32:13;13.60;99.90
37518;DHT22;23366;52.498;13.446;2022-10-17T02:34:46;13.60;99.90
37518;DHT22;23366;52.498;13.446;2022-10-17T02:37:15;13.60;99.90
37518;DHT22;23366;52.498;13.446;2022-10-17T02:39:43;13.60;99.90
37518;DHT22;23366;52.498;13.446;2022-10-17T02:42:11;13.60;99.90
37518;DHT22;23366;52.498;13.446;2022-10-17T02:44:43;13.60;99.90
37518;DHT22;23366;52.498;13.446;2022-10-17T02:47:24;13.60;99.90
37518;DHT22;23366;52.498;13.446;2022-10-17T02:49:53;13.60;99.90
37518;DHT22;23366;52.498;13.446;2022-10-17T02:52:39;13.60;99.90
37518;DHT22;23366;52.498;13.446;2022-10-17T02:57:41;13.60;99.90
37518;DHT22;23366;52.498;13.446;2022-10-17T03:00:10;13.60;99.90
37518;DHT22;23366;52.498;13.446;2022-10-17T03:02:45;13.60;99.90
37518;DHT22;23366;52.498;13.446;2022-10-17T03:05:14;13.60;99.90
37518;DHT22;23366;52.498;13.446;2022-10-17T03:07:40;13.60;99.90
37518;DHT22;23366;52.498;13.446;2022-10-17T03:10:05;13.60;99.90
37518;DHT22;23366;52.498;13.446;2022-10-17T03:12:31;13.60;99.90
37518;DHT22;23366;52.498;13.446;2022-10-17T03:14:56;13.50;99.90
37518;DHT22;23366;52.498;13.446;2022-10-17T03:17:22;13.60;99.90
37518;DHT22;23366;52.498;13.446;2022-10-17T03:19:47;13.50;99.90
37518;DHT22;23366;52.498;13.446;2022-10-17T03:22:13;13.50;99.90
37518;DHT22;23366;52.498;13.446;2022-10-17T03:24:38;13.50;99.90
37518;DHT22;23366;52.498;13.446;2022-10-17T03:27:04;13.50;99.90
37518;DHT22;23366;52.498;13.446;2022-10-17T03:29:30;13.50;99.90
37518;DHT22;23366;52.498;13.446;2022-10-17T03:31:55;13.50;99.90
37518;DHT22;23366;52.498;13.446;2022-10-17T03:34:21;13.60;99.90
37518;DHT22;23366;52.498;13.446;2022-10-17T03:36:47;13.60;99.90
37518;DHT22;23366;52.498;13.446;2022-10-17T03:39:12;13.60;99.90
37518;DHT22;23366;52.498;13.446;2022-10-17T03:41:38;13.70;99.90
37518;DHT22;23366;52.498;13.446;2022-10-17T03:44:04;13.70;99.90
37518;DHT22;23366;52.498;13.446;2022-10-17T03:46:29;13.70;99.90
37518;DHT22;23366;52.498;13.446;2022-10-17T03:48:56;13.70;99.90
37518;DHT22;23366;52.498;13.446;2022-10-17T03:51:21;13.70;99.90
37518;DHT22;23366;52.498;13.446;2022-10-17T03:53:50;13.60;99.90
37518;DHT22;23366;52.498;13.446;2022-10-17T03:56:18;13.60;99.90
37518;DHT22;23366;52.498;13.446;2022-10-17T03:58:45;13.60;99.90
37518;DHT22;23366;52.498;13.446;2022-10-17T04:01:13;13.60;99.90
37518;DHT22;23366;52.498;13.446;2022-10-17T04:03:39;13.60;99.90
37518;DHT22;23366;52.498;13.446;2022-10-17T04:06:05;13.60;99.90
37518;DHT22;23366;52.498;13.446;2022-10-17T04:08:32;13.60;99.90
37518;DHT22;23366;52.498;13.446;2022-10-17T04:11:03;13.50;99.90
37518;DHT22;23366;52.498;13.446;2022-10-17T04:13:29;13.50;99.90
37518;DHT22;23366;52.498;13.446;2022-10-17T04:16:00;13.50;99.90
37518;DHT22;23366;52.498;13.446;2022-10-17T04:18:27;13.50;99.90
37518;DHT22;23366;52.498;13.446;2022-10-17T04:20:53;13.50;99.90
37518;DHT22;23366;52.498;13.446;2022-10-17T04:23:18;13.50;99.90
37518;DHT22;23366;52.498;13.446;2022-10-17T04:25:44;13.50;99.90
37518;DHT22;23366;52.498;13.446;2022-10-17T04:28:10;13.40;99.90
37518;DHT22;23366;52.498;13.446;2022-10-17T04:30:36;13.40;99.90
37518;DHT22;23366;52.498;13.446;2022-10-17T04:33:02;13.40;99.90
37518;DHT22;23366;52.498;13.446;2022-10-17T04:35:27;13.40;99.90
37518;DHT22;23366;52.498;13.446;2022-10-17T04:37:53;13.40;99.90
37518;DHT22;23366;52.498;13.446;2022-10-17T04:40:18;13.40;99.90
37518;DHT22;23366;52.498;13.446;2022-10-17T04:42:45;13.40;99.90
37518;DHT22;23366;52.498;13.446;2022-10-17T04:45:10;13.40;99.90
37518;DHT22;23366;52.498;13.446;2022-10-17T04:47:36;13.40;99.90
37518;DHT22;23366;52.498;13.446;2022-10-17T04:50:02;13.40;99.90
37518;DHT22;23366;52.498;13.446;2022-10-17T04:52:27;13.40;99.90
37518;DHT22;23366;52.498;13.446;2022-10-17T04:54:53;13.40;99.90
37518;DHT22;23366;52.498;13.446;2022-10-17T04:57:19;13.40;99.90
37518;DHT22;23366;52.498;13.446;2022-10-17T04:59:44;13.40;99.90
37518;DHT22;23366;52.498;13.446;2022-10-17T05:02:10;13.30;99.90
37518;DHT22;23366;52.498;13.446;2022-10-17T05:04:35;13.30;99.90
37518;DHT22;23366;52.498;13.446;2022-10-17T05:07:01;13.30;99.90
37518;DHT22;23366;52.498;13.446;2022-10-17T05:09:27;13.30;99.90
37518;DHT22;23366;52.498;13.446;2022-10-17T05:11:52;13.30;99.90
37518;DHT22;23366;52.498;13.446;2022-10-17T05:14:18;13.30;99.90
37518;DHT22;23366;52.498;13.446;2022-10-17T05:16:43;13.30;99.90
37518;DHT22;23366;52.498;13.446;2022-10-17T05:19:10;13.30;99.90
37518;DHT22;23366;52.498;13.446;2022-10-17T05:21:35;13.30;99.90
37518;DHT22;23366;52.498;13.446;2022-10-17T05:24:05;13.30;99.90
37518;DHT22;23366;52.498;13.446;2022-10-17T05:26:31;13.30;99.90
37518;DHT22;23366;52.498;13.446;2022-10-17T05:28:58;13.30;99.90
37518;DHT22;23366;52.498;13.446;2022-10-17T05:31:24;13.30;99.90
37518;DHT22;23366;52.498;13.446;2022-10-17T05:33:50;13.30;99.90
37518;DHT22;23366;52.498;13.446;2022-10-17T05:36:15;13.30;99.90
37518;DHT22;23366;52.498;13.446;2022-10-17T05:38:41;13.30;99.90
37518;DHT22;23366;52.498;13.446;2022-10-17T05:41:06;13.30;99.90
37518;DHT22;23366;52.498;13.446;2022-10-17T05:43:32;13.30;99.90
37518;DHT22;23366;52.498;13.446;2022-10-17T05:45:58;13.30;99.90
37518;DHT22;23366;52.498;13.446;2022-10-17T05:48:26;13.40;99.90
37518;DHT22;23366;52.498;13.446;2022-10-17T05:50:59;13.40;99.90
37518;DHT22;23366;52.498;13.446;2022-10-17T05:53:25;13.40;99.90
37518;DHT22;23366;52.498;13.446;2022-10-17T05:55:58;13.40;99.90
37518;DHT22;23366;52.498;13.446;2022-10-17T05:58:24;13.50;99.90
37518;DHT22;23366;52.498;13.446;2022-10-17T06:00:49;13.50;99.90
37518;DHT22;23366;52.498;13.446;2022-10-17T06:03:15;13.60;99.90
37518;DHT22;23366;52.498;13.446;2022-10-17T06:05:41;13.70;99.90
37518;DHT22;23366;52.498;13.446;2022-10-17T06:08:06;13.70;99.90
37518;DHT22;23366;52.498;13.446;2022-10-17T06:10:32;13.80;99.90
37518;DHT22;23366;52.498;13.446;2022-10-17T06:12:57;13.90;99.90
37518;DHT22;23366;52.498;13.446;2022-10-17T06:15:23;14.10;99.90
37518;DHT22;23366;52.498;13.446;2022-10-17T06:17:48;14.30;99.90
37518;DHT22;23366;52.498;13.446;2022-10-17T06:20:14;14.40;99.90
37518;DHT22;23366;52.498;13.446;2022-10-17T06:22:39;14.80;99.90
37518;DHT22;23366;52.498;13.446;2022-10-17T06:25:05;15.40;99.90
37518;DHT22;23366;52.498;13.446;2022-10-17T06:27:30;16.10;99.90
37518;DHT22;23366;52.498;13.446;2022-10-17T06:29:56;16.70;99.90
37518;DHT22;23366;52.498;13.446;2022-10-17T06:32:22;17.00;99.90
37518;DHT22;23366;52.498;13.446;2022-10-17T06:34:47;17.30;99.90
37518;DHT22;23366;52.498;13.446;2022-10-17T06:37:13;17.40;99.90
37518;DHT22;23366;52.498;13.446;2022-10-17T06:39:38;17.30;99.90
37518;DHT22;23366;52.498;13.446;2022-10-17T06:42:04;17.30;99.90
37518;DHT22;23366;52.498;13.446;2022-10-17T06:44:29;17.40;99.90
37518;DHT22;23366;52.498;13.446;2022-10-17T06:46:59;17.40;99.90
37518;DHT22;23366;52.498;13.446;2022-10-17T06:49:26;17.50;99.90
37518;DHT22;23366;52.498;13.446;2022-10-17T06:51:53;17.50;99.90
37518;DHT22;23366;52.498;13.446;2022-10-17T06:54:18;17.70;99.90
37518;DHT22;23366;52.498;13.446;2022-10-17T06:56:44;17.90;99.90
37518;DHT22;23366;52.498;13.446;2022-10-17T06:59:09;17.90;99.90
37518;DHT22;23366;52.498;13.446;2022-10-17T07:01:35;18.00;99.90
37518;DHT22;23366;52.498;13.446;2022-10-17T07:04:01;18.00;99.90
37518;DHT22;23366;52.498;13.446;2022-10-17T07:06:26;17.90;99.90
37518;DHT22;23366;52.498;13.446;2022-10-17T07:08:52;17.90;99.90
37518;DHT22;23366;52.498;13.446;2022-10-17T07:11:20;18.00;99.90
37518;DHT22;23366;52.498;13.446;2022-10-17T07:13:46;18.10;99.90
37518;DHT22;23366;52.498;13.446;2022-10-17T07:16:13;18.30;99.90
37518;DHT22;23366;52.498;13.446;2022-10-17T07:18:39;18.80;99.90
37518;DHT22;23366;52.498;13.446;2022-10-17T07:21:05;19.30;99.90
37518;DHT22;23366;52.498;13.446;2022-10-17T07:23:33;19.70;99.90
37518;DHT22;23366;52.498;13.446;2022-10-17T07:26:03;20.10;99.90
37518;DHT22;23366;52.498;13.446;2022-10-17T07:28:32;20.40;99.90
37518;DHT22;23366;52.498;13.446;2022-10-17T07:31:06;20.40;99.90
37518;DHT22;23366;52.498;13.446;2022-10-17T07:33:32;20.70;99.90
37518;DHT22;23366;52.498;13.446;2022-10-17T07:35:59;20.90;99.90
37518;DHT22;23366;52.498;13.446;2022-10-17T07:38:25;20.90;99.90
37518;DHT22;23366;52.498;13.446;2022-10-17T07:40:58;21.00;99.90
37518;DHT22;23366;52.498;13.446;2022-10-17T07:43:25;21.30;99.90
37518;DHT22;23366;52.498;13.446;2022-10-17T07:45:51;21.80;99.90
37518;DHT22;23366;52.498;13.446;2022-10-17T07:48:18;22.30;99.90
37518;DHT22;23366;52.498;13.446;2022-10-17T07:50:44;23.00;99.90
37518;DHT22;23366;52.498;13.446;2022-10-17T07:53:09;23.50;99.90
37518;DHT22;23366;52.498;13.446;2022-10-17T07:55:39;24.30;99.90
37518;DHT22;23366;52.498;13.446;2022-10-17T07:58:05;25.10;99.90
37518;DHT22;23366;52.498;13.446;2022-10-17T08:00:31;25.90;99.20
37518;DHT22;23366;52.498;13.446;2022-10-17T08:02:57;26.40;97.90
37518;DHT22;23366;52.498;13.446;2022-10-17T08:05:22;26.50;96.80
37518;DHT22;23366;52.498;13.446;2022-10-17T08:07:48;26.10;96.80
37518;DHT22;23366;52.498;13.446;2022-10-17T08:10:15;25.50;97.20
37518;DHT22;23366;52.498;13.446;2022-10-17T08:12:41;24.80;97.90
37518;DHT22;23366;52.498;13.446;2022-10-17T08:15:07;24.00;98.90
37518;DHT22;23366;52.498;13.446;2022-10-17T08:17:34;23.40;99.90
37518;DHT22;23366;52.498;13.446;2022-10-17T08:20:00;22.80;99.90
37518;DHT22;23366;52.498;13.446;2022-10-17T08:22:26;22.10;99.90
37518;DHT22;23366;52.498;13.446;2022-10-17T08:24:51;21.60;99.90
37518;DHT22;23366;52.498;13.446;2022-10-17T08:27:17;21.30;99.90
37518;DHT22;23366;52.498;13.446;2022-10-17T08:29:48;21.20;99.90
37518;DHT22;23366;52.498;13.446;2022-10-17T08:32:18;21.00;99.90
37518;DHT22;23366;52.498;13.446;2022-10-17T08:34:44;20.80;99.90
37518;DHT22;23366;52.498;13.446;2022-10-17T08:37:09;20.70;99.90
37518;DHT22;23366;52.498;13.446;2022-10-17T08:39:35;20.40;99.90
37518;DHT22;23366;52.498;13.446;2022-10-17T08:45:13;20.10;99.90
37518;DHT22;23366;52.498;13.446;2022-10-17T08:47:46;20.10;99.90
37518;DHT22;23366;52.498;13.446;2022-10-17T08:53:18;20.00;99.90
37518;DHT22;23366;52.498;13.446;2022-10-17T08:55:46;20.00;99.90
37518;DHT22;23366;52.498;13.446;2022-10-17T08:58:14;20.00;99.90
37518;DHT22;23366;52.498;13.446;2022-10-17T09:00:47;20.00;99.90
37518;DHT22;23366;52.498;13.446;2022-10-17T09:03:30;19.90;99.90
37518;DHT22;23366;52.498;13.446;2022-10-17T09:11:45;20.10;99.90
37518;DHT22;23366;52.498;13.446;2022-10-17T09:17:17;20.30;99.90
37518;DHT22;23366;52.498;13.446;2022-10-17T09:22:29;20.40;99.90
37518;DHT22;23366;52.498;13.446;2022-10-17T09:30:58;20.60;99.90
37518;DHT22;23366;52.498;13.446;2022-10-17T09:33:32;20.60;99.90
37518;DHT22;23366;52.498;13.446;2022-10-17T09:35:59;20.60;99.90
37518;DHT22;23366;52.498;13.446;2022-10-17T09:38:39;20.70;99.90
37518;DHT22;23366;52.498;13.446;2022-10-17T09:41:18;20.70;99.90
37518;DHT22;23366;52.498;13.446;2022-10-17T09:43:43;20.70;99.90
37518;DHT22;23366;52.498;13.446;2022-10-17T09:46:25;20.60;99.90
37518;DHT22;23366;52.498;13.446;2022-10-17T09:49:02;20.70;99.90
37518;DHT22;23366;52.498;13.446;2022-10-17T09:51:29;20.70;99.90
37518;DHT22;23366;52.498;13.446;2022-10-17T09:54:00;20.70;99.90
37518;DHT22;23366;52.498;13.446;2022-10-17T09:56:27;20.80;99.90
37518;DHT22;23366;52.498;13.446;2022-10-17T09:58:55;20.80;99.90
37518;DHT22;23366;52.498;13.446;2022-10-17T10:01:26;20.90;99.90
37518;DHT22;23366;52.498;13.446;2022-10-17T10:04:14;21.00;99.90
37518;DHT22;23366;52.498;13.446;2022-10-17T10:06:59;21.10;99.90
37518;DHT22;23366;52.498;13.446;2022-10-17T10:09:28;21.10;99.90
37518;DHT22;23366;52.498;13.446;2022-10-17T10:11:56;21.20;99.90
37518;DHT22;23366;52.498;13.446;2022-10-17T10:14:34;21.20;99.90
37518;DHT22;23366;52.498;13.446;2022-10-17T10:17:02;21.30;99.90
37518;DHT22;23366;52.498;13.446;2022-10-17T10:19:35;21.40;99.90
37518;DHT22;23366;52.498;13.446;2022-10-17T10:22:04;21.60;99.90
37518;DHT22;23366;52.498;13.446;2022-10-17T10:24:30;21.60;99.90
37518;DHT22;23366;52.498;13.446;2022-10-17T10:26:59;21.70;99.90
37518;DHT22;23366;52.498;13.446;2022-10-17T10:29:37;21.80;99.90
37518;DHT22;23366;52.498;13.446;2022-10-17T10:32:26;21.90;99.90
37518;DHT22;23366;52.498;13.446;2022-10-17T10:35:22;21.80;99.90
37518;DHT22;23366;52.498;13.446;2022-10-17T10:37:50;22.00;99.90
37518;DHT22;23366;52.498;13.446;2022-10-17T10:42:46;22.30;99.90
37518;DHT22;23366;52.498;13.446;2022-10-17T10:45:21;22.30;99.90
37518;DHT22;23366;52.498;13.446;2022-10-17T10:48:01;22.40;99.90
37518;DHT22;23366;52.498;13.446;2022-10-17T10:50:36;22.40;99.90
37518;DHT22;23366;52.498;13.446;2022-10-17T10:55:47;22.40;99.90
37518;DHT22;23366;52.498;13.446;2022-10-17T11:01:01;22.30;99.90
37518;DHT22;23366;52.498;13.446;2022-10-17T11:03:40;22.30;99.90
37518;DHT22;23366;52.498;13.446;2022-10-17T11:06:22;22.30;99.90
37518;DHT22;23366;52.498;13.446;2022-10-17T11:09:14;22.30;99.90
37518;DHT22;23366;52.498;13.446;2022-10-17T11:11:57;22.30;99.90
37518;DHT22;23366;52.498;13.446;2022-10-17T11:14:33;22.30;99.90
37518;DHT22;23366;52.498;13.446;2022-10-17T11:17:16;22.30;99.90
37518;DHT22;23366;52.498;13.446;2022-10-17T11:19:53;22.40;99.90
37518;DHT22;23366;52.498;13.446;2022-10-17T11:22:28;22.40;99.90
37518;DHT22;23366;52.498;13.446;2022-10-17T11:27:28;22.50;99.90
37518;DHT22;23366;52.498;13.446;2022-10-17T11:29:54;22.40;99.90
37518;DHT22;23366;52.498;13.446;2022-10-17T11:37:34;22.50;99.90
37518;DHT22;23366;52.498;13.446;2022-10-17T11:40:37;22.60;99.90
37518;DHT22;23366;52.498;13.446;2022-10-17T11:43:01;22.60;99.90
37518;DHT22;23366;52.498;13.446;2022-10-17T11:45:32;22.60;99.90
37518;DHT22;23366;52.498;13.446;2022-10-17T11:48:08;22.50;99.90
37518;DHT22;23366;52.498;13.446;2022-10-17T11:50:39;22.50;99.90
37518;DHT22;23366;52.498;13.446;2022-10-17T11:53:18;22.50;99.90
37518;DHT22;23366;52.498;13.446;2022-10-17T11:55:45;22.50;99.90
37518;DHT22;23366;52.498;13.446;2022-10-17T11:58:30;22.50;99.90
37518;DHT22;23366;52.498;13.446;2022-10-17T12:01:08;22.60;99.90
37518;DHT22;23366;52.498;13.446;2022-10-17T12:04:03;22.60;99.90
37518;DHT22;23366;52.498;13.446;2022-10-17T12:06:55;22.60;99.90
37518;DHT22;23366;52.498;13.446;2022-10-17T12:09:40;22.70;99.90
37518;DHT22;23366;52.498;13.446;2022-10-17T12:12:10;22.70;99.90
37518;DHT22;23366;52.498;13.446;2022-10-17T12:14:47;22.80;99.90
37518;DHT22;23366;52.498;13.446;2022-10-17T12:17:28;22.90;99.90
37518;DHT22;23366;52.498;13.446;2022-10-17T12:20:23;22.90;99.90
37518;DHT22;23366;52.498;13.446;2022-10-17T12:23:04;22.90;99.90
37518;DHT22;23366;52.498;13.446;2022-10-17T12:25:35;22.90;99.90
37518;DHT22;23366;52.498;13.446;2022-10-17T12:33:23;23.10;99.90
37518;DHT22;23366;52.498;13.446;2022-10-17T12:46:50;23.20;99.90
37518;DHT22;23366;52.498;13.446;2022-10-17T12:55:11;23.10;99.90
37518;DHT22;23366;52.498;13.446;2022-10-17T12:57:58;23.00;99.90
37518;DHT22;23366;52.498;13.446;2022-10-17T13:00:35;23.00;99.90
37518;DHT22;23366;52.498;13.446;2022-10-17T13:03:23;23.00;99.90
37518;DHT22;23366;52.498;13.446;2022-10-17T13:05:56;23.00;99.90
37518;DHT22;23366;52.498;13.446;2022-10-17T13:08:32;22.90;99.90
37518;DHT22;23366;52.498;13.446;2022-10-17T13:10:59;23.00;99.90
37518;DHT22;23366;52.498;13.446;2022-10-17T13:13:36;22.90;99.90
37518;DHT22;23366;52.498;13.446;2022-10-17T13:16:01;22.90;99.90
37518;DHT22;23366;52.498;13.446;2022-10-17T13:18:28;22.90;99.90
37518;DHT22;23366;52.498;13.446;2022-10-17T13:23:32;22.90;99.90
37518;DHT22;23366;52.498;13.446;2022-10-17T13:26:20;22.80;99.90
37518;DHT22;23366;52.498;13.446;2022-10-17T13:29:07;22.80;99.90
37518;DHT22;23366;52.498;13.446;2022-10-17T13:31:37;22.80;99.90
37518;DHT22;23366;52.498;13.446;2022-10-17T13:34:05;22.80;99.90
37518;DHT22;23366;52.498;13.446;2022-10-17T13:36:32;22.80;99.90
37518;DHT22;23366;52.498;13.446;2022-10-17T13:39:08;22.80;99.90
37518;DHT22;23366;52.498;13.446;2022-10-17T13:41:36;22.80;99.90
37518;DHT22;23366;52.498;13.446;2022-10-17T13:44:09;22.90;99.90
37518;DHT22;23366;52.498;13.446;2022-10-17T13:46:38;22.90;99.90
37518;DHT22;23366;52.498;13.446;2022-10-17T13:49:34;22.90;99.90
37518;DHT22;23366;52.498;13.446;2022-10-17T13:52:03;22.90;99.90
37518;DHT22;23366;52.498;13.446;2022-10-17T13:54:39;23.00;99.90
37518;DHT22;23366;52.498;13.446;2022-10-17T13:57:20;23.00;99.90
37518;DHT22;23366;52.498;13.446;2022-10-17T13:59:49;23.00;99.90
37518;DHT22;23366;52.498;13.446;2022-10-17T14:02:19;23.00;99.90
37518;DHT22;23366;52.498;13.446;2022-10-17T14:04:45;22.90;99.90
37518;DHT22;23366;52.498;13.446;2022-10-17T14:07:34;22.90;99.90
37518;DHT22;23366;52.498;13.446;2022-10-17T14:10:01;22.90;99.90
37518;DHT22;23366;52.498;13.446;2022-10-17T14:12:31;22.80;99.90
37518;DHT22;23366;52.498;13.446;2022-10-17T14:14:57;22.80;99.90
37518;DHT22;23366;52.498;13.446;2022-10-17T14:17:25;22.80;99.90
37518;DHT22;23366;52.498;13.446;2022-10-17T14:20:02;22.80;99.90
37518;DHT22;23366;52.498;13.446;2022-10-17T14:22:34;22.70;99.90
37518;DHT22;23366;52.498;13.446;2022-10-17T14:25:00;22.70;99.90
37518;DHT22;23366;52.498;13.446;2022-10-17T14:27:34;22.70;99.90
37518;DHT22;23366;52.498;13.446;2022-10-17T14:30:03;22.70;99.90
37518;DHT22;23366;52.498;13.446;2022-10-17T14:32:31;22.70;99.90
37518;DHT22;23366;52.498;13.446;2022-10-17T14:35:00;22.70;99.90
37518;DHT22;23366;52.498;13.446;2022-10-17T14:37:44;22.60;99.90
37518;DHT22;23366;52.498;13.446;2022-10-17T14:40:21;22.60;99.90
37518;DHT22;23366;52.498;13.446;2022-10-17T14:42:52;22.60;99.90
37518;DHT22;23366;52.498;13.446;2022-10-17T14:45:26;22.60;99.90
37518;DHT22;23366;52.498;13.446;2022-10-17T14:47:55;22.60;99.90
37518;DHT22;23366;52.498;13.446;2022-10-17T14:50:26;22.60;99.90
37518;DHT22;23366;52.498;13.446;2022-10-17T14:55:52;22.40;99.90
37518;DHT22;23366;52.498;13.446;2022-10-17T14:58:24;22.40;99.90
37518;DHT22;23366;52.498;13.446;2022-10-17T15:00:52;22.30;99.90
37518;DHT22;23366;52.498;13.446;2022-10-17T15:03:18;22.30;99.90
37518;DHT22;23366;52.498;13.446;2022-10-17T15:05:44;22.20;99.90
37518;DHT22;23366;52.498;13.446;2022-10-17T15:08:13;22.10;99.90
37518;DHT22;23366;52.498;13.446;2022-10-17T15:10:41;22.10;99.90
37518;DHT22;23366;52.498;13.446;2022-10-17T15:13:08;22.00;99.90
37518;DHT22;23366;52.498;13.446;2022-10-17T15:15:42;22.00;99.90
37518;DHT22;23366;52.498;13.446;2022-10-17T15:18:21;21.90;99.90
37518;DHT22;23366;52.498;13.446;2022-10-17T15:20:46;21.90;99.90
37518;DHT22;23366;52.498;13.446;2022-10-17T15:25:47;21.70;99.90
37518;DHT22;23366;52.498;13.446;2022-10-17T15:28:13;21.70;99.90
37518;DHT22;23366;52.498;13.446;2022-10-17T15:31:01;21.70;99.90
37518;DHT22;23366;52.498;13.446;2022-10-17T15:33:26;21.70;99.90
37518;DHT22;23366;52.498;13.446;2022-10-17T15:35:52;21.70;99.90
37518;DHT22;23366;52.498;13.446;2022-10-17T15:38:17;21.60;99.90
37518;DHT22;23366;52.498;13.446;2022-10-17T15:40:43;21.60;99.90
37518;DHT22;23366;52.498;13.446;2022-10-17T15:43:10;21.60;99.90
37518;DHT22;23366;52.498;13.446;2022-10-17T15:45:35;21.60;99.90
37518;DHT22;23366;52.498;13.446;2022-10-17T15:48:05;21.50;99.90
37518;DHT22;23366;52.498;13.446;2022-10-17T15:50:30;21.50;99.90
37518;DHT22;23366;52.498;13.446;2022-10-17T15:52:57;21.40;99.90
37518;DHT22;23366;52.498;13.446;2022-10-17T15:55:31;21.40;99.90
37518;DHT22;23366;52.498;13.446;2022-10-17T15:57:57;21.30;99.90
37518;DHT22;23366;52.498;13.446;2022-10-17T16:00:23;21.30;99.90
37518;DHT22;23366;52.498;13.446;2022-10-17T16:02:49;21.20;99.90
37518;DHT22;23366;52.498;13.446;2022-10-17T16:05:17;21.20;99.90
37518;DHT22;23366;52.498;13.446;2022-10-17T16:07:44;21.10;99.90
37518;DHT22;23366;52.498;13.446;2022-10-17T16:10:12;21.10;99.90
37518;DHT22;23366;52.498;13.446;2022-10-17T16:12:38;21.00;99.90
37518;DHT22;23366;52.498;13.446;2022-10-17T16:15:17;21.00;99.90
37518;DHT22;23366;52.498;13.446;2022-10-17T16:17:43;20.90;99.90
37518;DHT22;23366;52.498;13.446;2022-10-17T16:20:10;20.90;99.90
37518;DHT22;23366;52.498;13.446;2022-10-17T16:22:37;20.80;99.90
37518;DHT22;23366;52.498;13.446;2022-10-17T16:25:06;20.80;99.90
37518;DHT22;23366;52.498;13.446;2022-10-17T16:27:35;20.70;99.90
37518;DHT22;23366;52.498;13.446;2022-10-17T16:30:02;20.70;99.90
37518;DHT22;23366;52.498;13.446;2022-10-17T16:32:28;20.70;99.90
37518;DHT22;23366;52.498;13.446;2022-10-17T16:34:54;20.60;99.90
37518;DHT22;23366;52.498;13.446;2022-10-17T16:37:20;20.50;99.90
37518;DHT22;23366;52.498;13.446;2022-10-17T16:39:46;20.50;99.90
37518;DHT22;23366;52.498;13.446;2022-10-17T16:42:17;20.50;99.90
37518;DHT22;23366;52.498;13.446;2022-10-17T16:44:42;20.40;99.90
37518;DHT22;23366;52.498;13.446;2022-10-17T16:47:08;20.40;99.90
37518;DHT22;23366;52.498;13.446;2022-10-17T16:49:34;20.30;99.90
37518;DHT22;23366;52.498;13.446;2022-10-17T16:52:00;20.30;99.90
37518;DHT22;23366;52.498;13.446;2022-10-17T16:54:25;20.20;99.90
37518;DHT22;23366;52.498;13.446;2022-10-17T16:59:55;20.20;99.90
37518;DHT22;23366;52.498;13.446;2022-10-17T17:05:59;20.10;99.90
37518;DHT22;23366;52.498;13.446;2022-10-17T17:08:25;20.10;99.90
37518;DHT22;23366;52.498;13.446;2022-10-17T17:13:56;20.10;99.90